Time;durP1;ratioP1;P1;durP2;ratioP2;P2;SDS_P1;SDS_P2;PMS_P1;PMS_P2;Temp;Humidity;BMP_temperature;BMP_pressure;BME280_temperature;BME280_humidity;BME280_pressure;Samples;Min_cycle;Max_cycle;Signal;HPM_P1;HPM_P2
2022/10/01 00:00:26;;;;;;;12.20;9.35;;;;;;;;;;5049883;28;20049;-65
2022/10/01 00:02:53;;;;;;;14.32;9.07;;;;;;;;;;5050171;28;20483;-65
2022/10/01 00:05:19;;;;;;;17.38;9.32;;;;;;;;;;5049599;28;20099;-64
2022/10/01 00:07:46;;;;;;;14.00;10.20;;;;;;;;;;5052395;28;20068;-64
2022/10/01 00:10:12;;;;;;;13.20;9.30;;;;;;;;;;5053458;28;20049;-64
2022/10/01 00:12:39;;;;;;;12.70;9.77;;;;;;;;;;5053900;28;20045;-64
2022/10/01 00:15:08;;;;;;;12.70;10.02;;;;;;;;;;5035418;28;20041;-64
2022/10/01 00:17:35;;;;;;;13.60;10.20;;;;;;;;;;5053774;28;20029;-64
2022/10/01 00:20:02;;;;;;;13.63;9.65;;;;;;;;;;5053687;28;20079;-64
2022/10/01 00:22:31;;;;;;;15.23;10.73;;;;;;;;;;5035258;28;20483;-64
2022/10/01 00:24:58;;;;;;;11.77;9.68;;;;;;;;;;5035768;28;20055;-64
2022/10/01 00:27:24;;;;;;;13.95;10.38;;;;;;;;;;5018539;28;20052;-64
2022/10/01 00:29:50;;;;;;;12.77;9.77;;;;;;;;;;5052795;28;20048;-64
2022/10/01 00:32:16;;;;;;;13.23;10.30;;;;;;;;;;5053534;28;20170;-64
2022/10/01 00:34:43;;;;;;;15.70;10.93;;;;;;;;;;5053492;28;20032;-64
2022/10/01 00:37:09;;;;;;;12.40;10.20;;;;;;;;;;5053048;28;20454;-64
2022/10/01 00:39:35;;;;;;;12.02;10.27;;;;;;;;;;5053463;28;20036;-64
2022/10/01 00:42:02;;;;;;;17.58;10.82;;;;;;;;;;5053172;28;20157;-64
2022/10/01 00:44:31;;;;;;;17.33;10.68;;;;;;;;;;5052981;28;20044;-64
2022/10/01 00:47:01;;;;;;;12.20;10.90;;;;;;;;;;5053410;28;20115;-64
2022/10/01 00:49:28;;;;;;;12.82;10.10;;;;;;;;;;5035253;28;20078;-64
2022/10/01 00:51:59;;;;;;;14.00;10.55;;;;;;;;;;5052820;28;20029;-64
2022/10/01 00:54:37;;;;;;;12.55;9.80;;;;;;;;;;5035066;28;20059;-64
2022/10/01 00:57:05;;;;;;;13.18;10.50;;;;;;;;;;5052955;28;20132;-64
2022/10/01 00:59:31;;;;;;;12.65;9.55;;;;;;;;;;5052741;28;20048;-64
2022/10/01 01:01:57;;;;;;;12.93;10.20;;;;;;;;;;5053185;28;20037;-64
2022/10/01 01:04:23;;;;;;;13.60;10.55;;;;;;;;;;5034637;28;20049;-64
2022/10/01 01:06:56;;;;;;;11.93;10.38;;;;;;;;;;5052165;28;20040;-64
2022/10/01 01:09:24;;;;;;;15.65;11.18;;;;;;;;;;5050868;28;20032;-64
2022/10/01 01:11:50;;;;;;;13.73;10.68;;;;;;;;;;5032922;28;20095;-64
2022/10/01 01:14:23;;;;;;;13.07;10.55;;;;;;;;;;5032359;28;20033;-64
2022/10/01 01:16:57;;;;;;;11.73;9.57;;;;;;;;;;5032617;28;20148;-64
2022/10/01 01:19:36;;;;;;;13.73;9.98;;;;;;;;;;5032699;28;20033;-64
2022/10/01 01:22:04;;;;;;;12.32;10.20;;;;;;;;;;5032291;28;20049;-64
2022/10/01 01:24:45;;;;;;;15.32;10.68;;;;;;;;;;5032374;28;20076;-64
2022/10/01 01:27:12;;;;;;;18.73;11.25;;;;;;;;;;5032141;28;20533;-64
2022/10/01 01:29:43;;;;;;;16.70;11.20;;;;;;;;;;5014748;28;20116;-64
2022/10/01 01:32:14;;;;;;;12.63;9.68;;;;;;;;;;5032546;28;20392;-64
2022/10/01 01:34:42;;;;;;;12.57;10.77;;;;;;;;;;5032233;28;20089;-64
2022/10/01 01:37:11;;;;;;;12.60;9.93;;;;;;;;;;5032515;28;20041;-64
2022/10/01 01:39:39;;;;;;;15.73;10.13;;;;;;;;;;5032403;28;20116;-64
2022/10/01 01:42:07;;;;;;;14.38;10.80;;;;;;;;;;5031874;28;20092;-64
2022/10/01 01:44:36;;;;;;;11.63;10.25;;;;;;;;;;5032178;28;20072;-64
2022/10/01 01:47:04;;;;;;;14.00;10.35;;;;;;;;;;5032196;28;20403;-64
2022/10/01 01:49:30;;;;;;;13.40;10.43;;;;;;;;;;5031645;28;20051;-64
2022/10/01 01:51:59;;;;;;;11.85;10.00;;;;;;;;;;5031938;28;20073;-64
2022/10/01 01:54:25;;;;;;;12.75;9.48;;;;;;;;;;5032002;28;20117;-64
2022/10/01 01:56:52;;;;;;;17.45;10.60;;;;;;;;;;5031300;28;20443;-64
2022/10/01 01:59:18;;;;;;;13.43;10.23;;;;;;;;;;5031881;28;20048;-64
2022/10/01 02:01:45;;;;;;;13.93;9.95;;;;;;;;;;5031853;28;20052;-64
2022/10/01 02:04:29;;;;;;;15.32;9.98;;;;;;;;;;5031687;28;20064;-64
2022/10/01 02:07:02;;;;;;;14.20;10.88;;;;;;;;;;5031358;28;20660;-64
2022/10/01 02:09:48;;;;;;;11.27;9.35;;;;;;;;;;5031376;28;20044;-64
2022/10/01 02:12:34;;;;;;;16.35;10.75;;;;;;;;;;5019853;28;20041;-64
2022/10/01 02:15:09;;;;;;;12.55;9.68;;;;;;;;;;5031762;28;20045;-64
2022/10/01 02:17:38;;;;;;;13.20;9.40;;;;;;;;;;5031607;28;20033;-64
2022/10/01 02:20:17;;;;;;;13.95;10.95;;;;;;;;;;5031151;28;20033;-64
2022/10/01 02:22:51;;;;;;;17.23;10.05;;;;;;;;;;5031395;28;20816;-64
2022/10/01 02:25:25;;;;;;;13.65;9.55;;;;;;;;;;5030931;28;20176;-63
2022/10/01 02:28:04;;;;;;;14.32;10.00;;;;;;;;;;5013067;28;20041;-63
2022/10/01 02:30:31;;;;;;;13.63;10.02;;;;;;;;;;5030848;28;20041;-63
2022/10/01 02:32:59;;;;;;;13.40;10.48;;;;;;;;;;5031308;28;20037;-63
2022/10/01 02:35:26;;;;;;;11.20;9.27;;;;;;;;;;5031091;28;20045;-64
2022/10/01 02:37:53;;;;;;;9.77;8.68;;;;;;;;;;5031210;28;20041;-64
2022/10/01 02:40:21;;;;;;;12.98;9.65;;;;;;;;;;5031397;28;20052;-64
2022/10/01 02:42:49;;;;;;;11.55;8.57;;;;;;;;;;5030483;28;20079;-64
2022/10/01 02:45:17;;;;;;;14.55;9.55;;;;;;;;;;5031128;28;20552;-64
2022/10/01 02:47:46;;;;;;;14.15;9.43;;;;;;;;;;5031001;28;20045;-64
2022/10/01 02:50:13;;;;;;;10.77;8.15;;;;;;;;;;5013102;28;20053;-64
2022/10/01 02:52:39;;;;;;;9.68;7.90;;;;;;;;;;5031077;28;20099;-64
2022/10/01 02:55:08;;;;;;;12.32;9.05;;;;;;;;;;5031051;28;20034;-64
2022/10/01 02:57:35;;;;;;;10.20;7.53;;;;;;;;;;5030337;28;20060;-64
2022/10/01 03:00:04;;;;;;;10.25;7.30;;;;;;;;;;5030684;28;20635;-64
2022/10/01 03:02:31;;;;;;;10.00;7.93;;;;;;;;;;5030721;28;20076;-64
2022/10/01 03:04:58;;;;;;;8.38;6.95;;;;;;;;;;5030305;28;20623;-64
2022/10/01 03:07:28;;;;;;;9.30;7.50;;;;;;;;;;5030706;28;20087;-64
2022/10/01 03:09:54;;;;;;;10.02;6.80;;;;;;;;;;5036642;28;20395;-64
2022/10/01 03:12:21;;;;;;;8.77;7.05;;;;;;;;;;5050257;28;20486;-64
2022/10/01 03:14:47;;;;;;;7.93;6.35;;;;;;;;;;5050507;28;20052;-64
2022/10/01 03:17:14;;;;;;;7.65;6.47;;;;;;;;;;5050624;28;20188;-64
2022/10/01 03:19:40;;;;;;;6.75;5.90;;;;;;;;;;5031969;28;20041;-64
2022/10/01 03:22:11;;;;;;;7.88;6.00;;;;;;;;;;5050615;28;20176;-64
2022/10/01 03:24:37;;;;;;;7.07;6.03;;;;;;;;;;5050512;28;20052;-64
2022/10/01 03:27:03;;;;;;;7.20;5.82;;;;;;;;;;5049640;28;20422;-64
2022/10/01 03:29:29;;;;;;;6.75;5.20;;;;;;;;;;5050361;28;20129;-64
2022/10/01 03:31:55;;;;;;;8.18;5.43;;;;;;;;;;5050236;28;20044;-64
2022/10/01 03:34:21;;;;;;;6.20;5.40;;;;;;;;;;5050022;28;20451;-64
2022/10/01 03:36:48;;;;;;;6.72;5.47;;;;;;;;;;5050019;28;20044;-64
2022/10/01 03:39:15;;;;;;;8.40;5.10;;;;;;;;;;5050071;28;20047;-64
2022/10/01 03:41:41;;;;;;;5.82;4.47;;;;;;;;;;5052719;28;20081;-63
2022/10/01 03:44:07;;;;;;;5.95;4.38;;;;;;;;;;5036471;28;20056;-63
2022/10/01 03:46:33;;;;;;;5.63;4.20;;;;;;;;;;5054308;28;20055;-63
2022/10/01 03:48:59;;;;;;;5.38;4.70;;;;;;;;;;5053667;28;20076;-63
2022/10/01 03:51:29;;;;;;;6.28;4.20;;;;;;;;;;5054387;28;20037;-63
2022/10/01 03:53:55;;;;;;;5.78;4.40;;;;;;;;;;5054168;28;20041;-63
2022/10/01 03:56:21;;;;;;;5.20;3.80;;;;;;;;;;5053768;28;20103;-64
2022/10/01 03:58:48;;;;;;;4.55;3.75;;;;;;;;;;5054084;28;20040;-64
2022/10/01 04:01:14;;;;;;;6.43;3.92;;;;;;;;;;5054124;28;20037;-64
2022/10/01 04:03:40;;;;;;;6.47;4.30;;;;;;;;;;5035820;28;20084;-64
2022/10/01 04:06:06;;;;;;;5.38;4.05;;;;;;;;;;5033934;28;20467;-64
2022/10/01 04:08:32;;;;;;;4.00;3.63;;;;;;;;;;4999373;28;20257;-64
2022/10/01 04:10:59;;;;;;;4.55;4.15;;;;;;;;;;5015675;28;20081;-64
2022/10/01 04:13:26;;;;;;;4.55;3.90;;;;;;;;;;5034065;28;20065;-64
2022/10/01 04:15:52;;;;;;;5.32;4.53;;;;;;;;;;5033905;28;20622;-64
2022/10/01 04:18:20;;;;;;;5.38;4.68;;;;;;;;;;5033626;28;20100;-64
2022/10/01 04:20:48;;;;;;;6.47;4.28;;;;;;;;;;5033674;28;20056;-64
2022/10/01 04:23:14;;;;;;;4.93;4.30;;;;;;;;;;5033805;28;20128;-64
2022/10/01 04:25:40;;;;;;;4.47;4.05;;;;;;;;;;5038598;28;20045;-64
2022/10/01 04:28:07;;;;;;;4.80;3.78;;;;;;;;;;5053622;28;20368;-64
2022/10/01 04:30:35;;;;;;;5.85;4.25;;;;;;;;;;5053711;28;20493;-64
2022/10/01 04:33:01;;;;;;;4.38;3.85;;;;;;;;;;5053178;28;20072;-64
2022/10/01 04:35:27;;;;;;;4.20;3.78;;;;;;;;;;5053647;28;20045;-64
2022/10/01 04:38:06;;;;;;;4.53;3.83;;;;;;;;;;5053347;28;20415;-64
2022/10/01 04:40:34;;;;;;;3.60;3.30;;;;;;;;;;5053277;28;20041;-64
2022/10/01 04:43:00;;;;;;;4.00;3.17;;;;;;;;;;5035624;28;20072;-64
2022/10/01 04:45:26;;;;;;;3.85;3.45;;;;;;;;;;5053427;28;20083;-63
2022/10/01 04:47:54;;;;;;;4.50;3.75;;;;;;;;;;5052234;28;20068;-64
2022/10/01 04:50:20;;;;;;;4.43;3.95;;;;;;;;;;5053203;28;20128;-64
2022/10/01 04:52:47;;;;;;;4.25;3.85;;;;;;;;;;5052320;28;20037;-64
2022/10/01 04:55:13;;;;;;;10.13;3.92;;;;;;;;;;5034742;28;20419;-64
2022/10/01 04:57:39;;;;;;;5.18;4.30;;;;;;;;;;5052881;28;20104;-64
2022/10/01 05:00:06;;;;;;;4.55;4.15;;;;;;;;;;5053073;28;20553;-64
2022/10/01 05:02:35;;;;;;;4.30;3.90;;;;;;;;;;5034405;28;20072;-64
2022/10/01 05:05:02;;;;;;;4.18;3.75;;;;;;;;;;5052397;28;20041;-64
2022/10/01 05:07:30;;;;;;;4.38;3.70;;;;;;;;;;5053005;28;20063;-64
2022/10/01 05:09:56;;;;;;;5.88;4.00;;;;;;;;;;5045969;28;20053;-64
2022/10/01 05:12:24;;;;;;;4.80;4.18;;;;;;;;;;5031977;28;20504;-64
2022/10/01 05:14:51;;;;;;;7.93;4.35;;;;;;;;;;5014546;28;20041;-64
2022/10/01 05:17:18;;;;;;;4.57;4.18;;;;;;;;;;5013975;28;20352;-64
2022/10/01 05:19:44;;;;;;;4.88;3.83;;;;;;;;;;5031879;28;20045;-64
2022/10/01 05:22:11;;;;;;;4.68;4.20;;;;;;;;;;5031913;28;20049;-64
2022/10/01 05:24:37;;;;;;;5.80;4.65;;;;;;;;;;5031548;28;20056;-64
2022/10/01 05:27:03;;;;;;;5.28;4.78;;;;;;;;;;5031743;28;20049;-64
2022/10/01 05:29:29;;;;;;;5.32;4.47;;;;;;;;;;5032048;28;20555;-64
2022/10/01 05:31:55;;;;;;;5.78;4.85;;;;;;;;;;5031608;28;20121;-64
2022/10/01 05:34:21;;;;;;;6.88;5.20;;;;;;;;;;5032334;28;20091;-64
2022/10/01 05:36:47;;;;;;;5.50;5.00;;;;;;;;;;5032352;28;20124;-64
2022/10/01 05:39:13;;;;;;;5.80;5.20;;;;;;;;;;5031717;28;20053;-64
2022/10/01 05:41:39;;;;;;;7.47;5.95;;;;;;;;;;5032005;28;20052;-64
2022/10/01 05:44:06;;;;;;;7.70;5.70;;;;;;;;;;5032260;28;20038;-64
2022/10/01 05:46:32;;;;;;;8.27;5.78;;;;;;;;;;5031617;28;20138;-64
2022/10/01 05:48:58;;;;;;;9.98;5.90;;;;;;;;;;5031820;28;20072;-65
2022/10/01 05:51:24;;;;;;;9.15;6.20;;;;;;;;;;5031960;28;20124;-64
2022/10/01 05:53:54;;;;;;;8.18;7.38;;;;;;;;;;5031566;28;20084;-64
2022/10/01 05:56:20;;;;;;;11.68;6.78;;;;;;;;;;5031977;28;20528;-64
2022/10/01 05:58:46;;;;;;;9.15;7.07;;;;;;;;;;5031598;28;20048;-64
2022/10/01 06:01:12;;;;;;;8.15;7.10;;;;;;;;;;5031174;28;20060;-64
2022/10/01 06:03:38;;;;;;;9.63;7.20;;;;;;;;;;5031176;28;20045;-64
2022/10/01 06:06:05;;;;;;;11.88;8.07;;;;;;;;;;5013345;28;20041;-64
2022/10/01 06:08:33;;;;;;;10.13;7.38;;;;;;;;;;5031155;28;20057;-64
2022/10/01 06:11:00;;;;;;;11.10;7.88;;;;;;;;;;5046061;28;20053;-64
2022/10/01 06:13:27;;;;;;;9.25;7.97;;;;;;;;;;5051426;28;20037;-64
2022/10/01 06:15:53;;;;;;;9.85;8.85;;;;;;;;;;5050843;28;20048;-64
2022/10/01 06:18:19;;;;;;;13.50;9.45;;;;;;;;;;5051420;28;20095;-64
2022/10/01 06:20:45;;;;;;;12.00;9.38;;;;;;;;;;5051463;28;20545;-64
2022/10/01 06:23:12;;;;;;;10.38;9.38;;;;;;;;;;5051212;28;20045;-64
2022/10/01 06:25:39;;;;;;;11.70;9.95;;;;;;;;;;5050958;28;20506;-64
2022/10/01 06:28:06;;;;;;;11.35;9.95;;;;;;;;;;5051195;28;20389;-64
2022/10/01 06:30:35;;;;;;;14.27;10.55;;;;;;;;;;5051332;28;20095;-64
2022/10/01 06:33:13;;;;;;;13.63;10.55;;;;;;;;;;5050976;28;20035;-64
2022/10/01 06:35:40;;;;;;;13.30;10.55;;;;;;;;;;5050950;28;20384;-64
2022/10/01 06:38:08;;;;;;;11.75;10.55;;;;;;;;;;5050543;28;20107;-64
2022/10/01 06:40:34;;;;;;;12.82;11.30;;;;;;;;;;5033082;28;20118;-65
2022/10/01 06:43:00;;;;;;;14.18;11.48;;;;;;;;;;5051132;28;20040;-65
2022/10/01 06:45:27;;;;;;;13.98;11.50;;;;;;;;;;5032871;28;20475;-65
2022/10/01 06:47:57;;;;;;;16.15;12.13;;;;;;;;;;5050886;28;20445;-65
2022/10/01 06:50:23;;;;;;;15.95;11.30;;;;;;;;;;5050865;28;20052;-65
2022/10/01 06:52:50;;;;;;;13.18;11.57;;;;;;;;;;5050555;28;20098;-65
2022/10/01 06:55:16;;;;;;;16.85;11.48;;;;;;;;;;5050708;28;20036;-65
2022/10/01 06:57:42;;;;;;;13.32;11.63;;;;;;;;;;5032993;28;20048;-64
2022/10/01 07:00:08;;;;;;;13.18;11.52;;;;;;;;;;5050791;28;20041;-64
2022/10/01 07:02:35;;;;;;;15.05;11.40;;;;;;;;;;5050496;28;20033;-64
2022/10/01 07:05:01;;;;;;;14.38;11.35;;;;;;;;;;5050816;28;20095;-65
2022/10/01 07:07:31;;;;;;;14.02;11.88;;;;;;;;;;5032443;28;20103;-65
2022/10/01 07:09:57;;;;;;;15.20;10.93;;;;;;;;;;5043777;28;20054;-65
2022/10/01 07:12:24;;;;;;;13.93;12.10;;;;;;;;;;5013015;28;20092;-65
2022/10/01 07:14:50;;;;;;;16.52;12.13;;;;;;;;;;5030313;28;20077;-65
2022/10/01 07:17:16;;;;;;;17.52;11.60;;;;;;;;;;5030413;28;20486;-65
2022/10/01 07:19:42;;;;;;;14.25;11.15;;;;;;;;;;5012601;28;20115;-65
2022/10/01 07:22:08;;;;;;;12.85;10.60;;;;;;;;;;5030617;28;20068;-65
2022/10/01 07:24:34;;;;;;;19.25;11.20;;;;;;;;;;5030370;28;20439;-65
2022/10/01 07:27:00;;;;;;;15.80;11.18;;;;;;;;;;5030530;28;20041;-65
2022/10/01 07:29:26;;;;;;;14.02;11.48;;;;;;;;;;5030565;28;20072;-65
2022/10/01 07:31:59;;;;;;;18.23;11.50;;;;;;;;;;5030068;28;20480;-65
2022/10/01 07:34:26;;;;;;;17.13;10.70;;;;;;;;;;5030705;28;20455;-65
2022/10/01 07:36:53;;;;;;;20.13;10.48;;;;;;;;;;5030576;28;20129;-65
2022/10/01 07:39:19;;;;;;;15.85;11.40;;;;;;;;;;5030034;28;20049;-65
2022/10/01 07:41:45;;;;;;;19.48;12.18;;;;;;;;;;5030542;28;20044;-65
2022/10/01 07:44:11;;;;;;;19.50;11.25;;;;;;;;;;5012737;28;20046;-65
2022/10/01 07:46:38;;;;;;;19.00;11.30;;;;;;;;;;5030020;28;20053;-65
2022/10/01 07:49:04;;;;;;;19.60;10.80;;;;;;;;;;5012224;28;20048;-65
2022/10/01 07:51:31;;;;;;;14.95;9.68;;;;;;;;;;5012408;28;20052;-65
2022/10/01 07:53:57;;;;;;;17.42;9.90;;;;;;;;;;5030143;28;20033;-65
2022/10/01 07:56:25;;;;;;;22.05;9.48;;;;;;;;;;5030292;28;20157;-64
2022/10/01 07:58:58;;;;;;;16.42;9.80;;;;;;;;;;5030232;28;20099;-64
2022/10/01 08:01:24;;;;;;;17.33;10.05;;;;;;;;;;5029588;28;20041;-64
2022/10/01 08:03:51;;;;;;;18.65;10.45;;;;;;;;;;5030028;28;20081;-64
2022/10/01 08:06:17;;;;;;;21.50;11.13;;;;;;;;;;5030184;28;20041;-64
2022/10/01 08:08:44;;;;;;;14.88;9.32;;;;;;;;;;5029830;28;20072;-64
2022/10/01 08:11:13;;;;;;;18.92;11.30;;;;;;;;;;5046099;28;20053;-64
2022/10/01 08:13:39;;;;;;;18.20;10.30;;;;;;;;;;5050185;28;20052;-64
2022/10/01 08:16:08;;;;;;;19.17;9.02;;;;;;;;;;5049718;28;20136;-64
2022/10/01 08:18:35;;;;;;;17.58;8.63;;;;;;;;;;5049867;28;20041;-64
2022/10/01 08:21:02;;;;;;;17.75;8.80;;;;;;;;;;5049894;28;20048;-64
2022/10/01 08:23:29;;;;;;;22.40;8.02;;;;;;;;;;5049279;28;20037;-64
2022/10/01 08:26:06;;;;;;;15.18;6.47;;;;;;;;;;5049749;28;20045;-64
2022/10/01 08:28:35;;;;;;;17.90;6.43;;;;;;;;;;5051945;28;20037;-64
2022/10/01 08:31:08;;;;;;;17.17;5.85;;;;;;;;;;5035304;28;20052;-64
2022/10/01 08:33:35;;;;;;;16.45;4.95;;;;;;;;;;5053108;28;20048;-64
2022/10/01 08:36:08;;;;;;;14.77;5.72;;;;;;;;;;5053401;28;20240;-64
2022/10/01 08:38:34;;;;;;;13.85;5.00;;;;;;;;;;5052936;28;20501;-64
2022/10/01 08:41:03;;;;;;;23.80;5.30;;;;;;;;;;5053340;28;20040;-64
2022/10/01 08:43:35;;;;;;;7.90;4.30;;;;;;;;;;5053442;28;20243;-64
2022/10/01 08:46:04;;;;;;;19.20;5.15;;;;;;;;;;5052975;28;20475;-65
2022/10/01 08:48:50;;;;;;;15.63;4.32;;;;;;;;;;5052949;28;20044;-65
2022/10/01 08:51:24;;;;;;;9.27;3.92;;;;;;;;;;5052926;28;20123;-65
2022/10/01 08:53:54;;;;;;;19.75;3.80;;;;;;;;;;5053173;28;20521;-65
2022/10/01 08:56:40;;;;;;;12.30;3.20;;;;;;;;;;5052727;28;20080;-65
2022/10/01 08:59:24;;;;;;;21.48;3.65;;;;;;;;;;5052555;28;20041;-65
2022/10/01 09:01:51;;;;;;;15.98;4.10;;;;;;;;;;5052902;28;20086;-65
2022/10/01 09:04:17;;;;;;;12.32;3.10;;;;;;;;;;5052529;28;20048;-65
2022/10/01 09:06:44;;;;;;;10.93;3.10;;;;;;;;;;5052229;28;20091;-65
2022/10/01 09:09:12;;;;;;;12.25;3.85;;;;;;;;;;5052809;28;20053;-65
2022/10/01 09:11:41;;;;;;;13.50;3.30;;;;;;;;;;5052881;28;20041;-65
2022/10/01 09:14:26;;;;;;;14.57;3.38;;;;;;;;;;5052442;28;20050;-65
2022/10/01 09:16:58;;;;;;;13.75;2.50;;;;;;;;;;5052415;28;20062;-65
2022/10/01 09:19:33;;;;;;;9.98;2.30;;;;;;;;;;5052568;28;20041;-65
2022/10/01 09:22:03;;;;;;;11.23;2.45;;;;;;;;;;5052319;28;20077;-65
2022/10/01 09:24:50;;;;;;;6.72;2.05;;;;;;;;;;5052227;28;20057;-65
2022/10/01 09:27:17;;;;;;;6.35;1.80;;;;;;;;;;5052384;28;20414;-65
2022/10/01 09:30:03;;;;;;;7.65;1.90;;;;;;;;;;5051913;28;20037;-65
2022/10/01 09:32:31;;;;;;;9.40;2.20;;;;;;;;;;5051908;28;20060;-65
2022/10/01 09:35:04;;;;;;;6.13;1.50;;;;;;;;;;5034434;28;20453;-65
2022/10/01 09:37:46;;;;;;;10.18;1.80;;;;;;;;;;5051934;28;20511;-65
2022/10/01 09:40:31;;;;;;;10.50;1.73;;;;;;;;;;5052234;28;20047;-65
2022/10/01 09:42:57;;;;;;;7.22;1.20;;;;;;;;;;5051963;28;20132;-65
2022/10/01 09:45:24;;;;;;;5.13;1.17;;;;;;;;;;5051837;28;20095;-65
2022/10/01 09:47:51;;;;;;;8.85;1.35;;;;;;;;;;5034060;28;20091;-65
2022/10/01 09:50:39;;;;;;;6.18;1.30;;;;;;;;;;5051746;28;20049;-65
2022/10/01 09:53:10;;;;;;;6.53;1.42;;;;;;;;;;5052129;28;20083;-65
2022/10/01 09:55:38;;;;;;;9.07;1.95;;;;;;;;;;5051704;28;20123;-65
2022/10/01 09:58:25;;;;;;;7.63;1.42;;;;;;;;;;5051500;28;20090;-65
2022/10/01 10:00:53;;;;;;;6.13;1.20;;;;;;;;;;5051464;28;20037;-65
2022/10/01 10:03:29;;;;;;;7.97;1.40;;;;;;;;;;5051797;28;20106;-64
2022/10/01 10:05:58;;;;;;;7.47;1.63;;;;;;;;;;5051236;28;20402;-65
2022/10/01 10:08:24;;;;;;;7.53;1.20;;;;;;;;;;5051719;28;20041;-64
2022/10/01 10:10:51;;;;;;;6.53;1.60;;;;;;;;;;5051398;28;20420;-64
2022/10/01 10:13:18;;;;;;;7.88;1.35;;;;;;;;;;5051176;28;20037;-64
2022/10/01 10:15:52;;;;;;;5.15;1.10;;;;;;;;;;5051652;28;20045;-64
2022/10/01 10:18:24;;;;;;;4.28;1.45;;;;;;;;;;5051447;28;20072;-64
2022/10/01 10:20:52;;;;;;;5.60;1.58;;;;;;;;;;5051366;28;20037;-64
2022/10/01 10:23:25;;;;;;;6.28;1.65;;;;;;;;;;5051610;28;20123;-64
2022/10/01 10:25:54;;;;;;;4.93;1.67;;;;;;;;;;5051247;28;20045;-64
2022/10/01 10:28:22;;;;;;;6.20;1.33;;;;;;;;;;5050410;28;20037;-64
2022/10/01 10:30:49;;;;;;;8.27;1.95;;;;;;;;;;5051018;28;20045;-64
2022/10/01 10:33:16;;;;;;;6.25;2.00;;;;;;;;;;5033450;28;20052;-64
2022/10/01 10:35:42;;;;;;;6.05;1.50;;;;;;;;;;5032762;28;20045;-65
2022/10/01 10:38:17;;;;;;;11.38;2.47;;;;;;;;;;5051141;28;20041;-65
2022/10/01 10:40:44;;;;;;;8.23;1.55;;;;;;;;;;5050862;28;20049;-65
2022/10/01 10:43:30;;;;;;;9.27;1.50;;;;;;;;;;5050776;28;20037;-65
2022/10/01 10:45:57;;;;;;;10.75;2.28;;;;;;;;;;5051198;28;20135;-65
2022/10/01 10:48:34;;;;;;;6.80;1.50;;;;;;;;;;5032936;28;20048;-64
2022/10/01 10:51:02;;;;;;;5.20;0.88;;;;;;;;;;5050137;28;20037;-64
2022/10/01 10:53:32;;;;;;;2.83;0.70;;;;;;;;;;5051081;28;20119;-64
2022/10/01 10:55:59;;;;;;;4.85;0.95;;;;;;;;;;5050678;28;20045;-64
2022/10/01 10:58:29;;;;;;;4.88;0.90;;;;;;;;;;5050209;28;20040;-64
2022/10/01 11:00:57;;;;;;;6.20;1.15;;;;;;;;;;5050731;28;20063;-64
2022/10/01 11:03:25;;;;;;;3.95;1.00;;;;;;;;;;5050741;28;20063;-64
2022/10/01 11:05:55;;;;;;;9.50;1.25;;;;;;;;;;5050155;28;20041;-64
2022/10/01 11:08:23;;;;;;;9.40;1.33;;;;;;;;;;5050463;28;20047;-64
2022/10/01 11:11:12;;;;;;;6.13;1.25;;;;;;;;;;5050387;28;20061;-64
2022/10/01 11:14:02;;;;;;;8.77;1.40;;;;;;;;;;5050395;28;20033;-64
2022/10/01 11:16:30;;;;;;;7.97;1.40;;;;;;;;;;5050771;28;20475;-64
2022/10/01 11:18:57;;;;;;;5.05;1.50;;;;;;;;;;5050576;28;20099;-64
2022/10/01 11:21:47;;;;;;;6.53;1.80;;;;;;;;;;5050238;28;20076;-64
2022/10/01 11:24:19;;;;;;;7.57;1.45;;;;;;;;;;5040234;28;20057;-64
2022/10/01 11:26:55;;;;;;;7.05;1.70;;;;;;;;;;5049857;28;20438;-64
2022/10/01 11:29:30;;;;;;;10.25;1.80;;;;;;;;;;5050345;28;20395;-64
2022/10/01 11:32:02;;;;;;;12.88;2.10;;;;;;;;;;5032532;28;20094;-64
2022/10/01 11:34:30;;;;;;;7.00;1.85;;;;;;;;;;5050402;28;20439;-64
2022/10/01 11:37:20;;;;;;;10.80;1.98;;;;;;;;;;5050559;28;20052;-64
2022/10/01 11:39:47;;;;;;;7.93;1.70;;;;;;;;;;5039748;28;20340;-64
2022/10/01 11:42:17;;;;;;;11.35;2.30;;;;;;;;;;5050057;28;20597;-64
2022/10/01 11:44:46;;;;;;;10.85;1.73;;;;;;;;;;5050412;28;20105;-65
2022/10/01 11:47:12;;;;;;;8.00;1.98;;;;;;;;;;5049940;28;20048;-65
2022/10/01 11:49:58;;;;;;;8.52;2.17;;;;;;;;;;5049776;28;20033;-65
2022/10/01 11:52:39;;;;;;;9.73;1.85;;;;;;;;;;5050567;28;20052;-65
2022/10/01 12:01:18;;;;;;;8.63;2.25;;;;;;;;;;5050732;28;20053;-65
2022/10/01 12:03:53;;;;;;;9.68;2.03;;;;;;;;;;5035352;28;20152;-65
2022/10/01 12:06:22;;;;;;;12.55;2.53;;;;;;;;;;5053962;28;20045;-65
2022/10/01 12:08:53;;;;;;;13.68;1.95;;;;;;;;;;5035841;28;20497;-65
2022/10/01 12:11:29;;;;;;;12.75;2.13;;;;;;;;;;5053320;28;20107;-65
2022/10/01 12:14:02;;;;;;;13.13;2.38;;;;;;;;;;5053820;28;20048;-65
2022/10/01 12:16:33;;;;;;;10.27;2.00;;;;;;;;;;5053503;28;20049;-65
2022/10/01 12:19:11;;;;;;;12.45;3.13;;;;;;;;;;5053305;28;20066;-65
2022/10/01 12:21:40;;;;;;;10.07;1.98;;;;;;;;;;5053797;28;20040;-65
2022/10/01 12:24:14;;;;;;;16.45;3.17;;;;;;;;;;5054011;28;20063;-65
2022/10/01 12:26:59;;;;;;;9.65;2.40;;;;;;;;;;5035443;28;20048;-65
2022/10/01 12:29:48;;;;;;;13.35;2.53;;;;;;;;;;5035402;28;20049;-65
2022/10/01 12:32:24;;;;;;;11.95;2.47;;;;;;;;;;5042733;28;20097;-65
2022/10/01 12:35:06;;;;;;;14.55;2.90;;;;;;;;;;5053102;28;20076;-65
2022/10/01 12:37:35;;;;;;;14.73;2.17;;;;;;;;;;5035386;28;20060;-65
2022/10/01 12:40:19;;;;;;;13.43;2.13;;;;;;;;;;5053426;28;20127;-65
2022/10/01 12:42:52;;;;;;;7.78;1.85;;;;;;;;;;5052765;28;20038;-65
2022/10/01 12:45:18;;;;;;;10.88;1.70;;;;;;;;;;5018776;28;20041;-65
2022/10/01 12:47:50;;;;;;;12.15;1.80;;;;;;;;;;5053262;28;20098;-65
2022/10/01 12:50:29;;;;;;;12.27;2.33;;;;;;;;;;5034522;28;20040;-65
2022/10/01 12:53:01;;;;;;;9.57;1.70;;;;;;;;;;5053153;28;20124;-65
2022/10/01 12:55:39;;;;;;;11.30;2.53;;;;;;;;;;5052957;28;20041;-65
2022/10/01 12:58:18;;;;;;;8.18;2.20;;;;;;;;;;5052998;28;20037;-65
2022/10/01 13:00:59;;;;;;;11.27;2.15;;;;;;;;;;5053018;28;20052;-65
2022/10/01 13:03:36;;;;;;;14.07;2.38;;;;;;;;;;5052403;28;20092;-65
2022/10/01 13:06:05;;;;;;;14.10;2.80;;;;;;;;;;5034685;28;20049;-65
2022/10/01 13:08:50;;;;;;;11.57;2.33;;;;;;;;;;5052582;28;20052;-65
2022/10/01 13:11:48;;;;;;;15.85;2.22;;;;;;;;;;5052124;28;20056;-65
2022/10/01 13:14:16;;;;;;;14.43;2.90;;;;;;;;;;4991336;28;20041;-65
2022/10/01 13:16:43;;;;;;;12.82;2.47;;;;;;;;;;5034792;28;20077;-65
2022/10/01 13:19:19;;;;;;;16.27;3.63;;;;;;;;;;5034295;28;20093;-65
2022/10/01 13:21:45;;;;;;;10.90;2.28;;;;;;;;;;5052589;28;20368;-65
2022/10/01 13:24:37;;;;;;;16.38;2.92;;;;;;;;;;5052851;28;20106;-65
2022/10/01 13:27:03;;;;;;;;;;;;;;;;;;5031093;28;20060;-65
2022/10/01 13:29:34;;;;;;;17.60;2.78;;;;;;;;;;5052420;28;19921;-65
2022/10/01 13:32:24;;;;;;;10.32;1.63;;;;;;;;;;5052694;28;20473;-65
2022/10/01 13:34:50;;;;;;;11.90;2.38;;;;;;;;;;5052164;28;20133;-65
2022/10/01 13:37:33;;;;;;;12.82;2.13;;;;;;;;;;5052256;28;20040;-65
2022/10/01 13:39:59;;;;;;;;;;;;;;;;;;5052462;28;20041;-65
2022/10/01 13:42:27;;;;;;;10.93;1.77;;;;;;;;;;5052351;28;19917;-65
2022/10/01 13:44:59;;;;;;;16.23;2.65;;;;;;;;;;5052275;28;20658;-66
2022/10/01 13:47:26;;;;;;;11.52;2.25;;;;;;;;;;5051825;28;20410;-66
2022/10/01 13:50:02;;;;;;;9.30;2.03;;;;;;;;;;5051901;28;20045;-65
2022/10/01 13:52:30;;;;;;;10.98;1.85;;;;;;;;;;5052286;28;20713;-65
2022/10/01 13:54:57;;;;;;;12.23;2.20;;;;;;;;;;5051613;28;20502;-65
2022/10/01 13:57:43;;;;;;;13.70;2.15;;;;;;;;;;5052056;28;20464;-65
2022/10/01 14:00:12;;;;;;;13.75;2.80;;;;;;;;;;5051918;28;20045;-65
2022/10/01 14:02:39;;;;;;;13.68;2.47;;;;;;;;;;5051433;28;20059;-65
2022/10/01 14:05:17;;;;;;;12.48;2.35;;;;;;;;;;5051576;28;20041;-65
2022/10/01 14:07:45;;;;;;;8.70;1.75;;;;;;;;;;5051509;28;20090;-65
2022/10/01 14:10:14;;;;;;;12.88;2.22;;;;;;;;;;5050830;28;20091;-65
2022/10/01 14:18:15;;;;;;;14.52;4.15;;;;;;;;;;5032965;28;20075;-66
2022/10/01 14:20:52;;;;;;;17.00;4.82;;;;;;;;;;5051752;28;20033;-66
2022/10/01 14:23:23;;;;;;;14.73;3.90;;;;;;;;;;5051397;28;20037;-66
2022/10/01 14:25:52;;;;;;;16.27;2.50;;;;;;;;;;5032025;28;20102;-65
2022/10/01 14:28:40;;;;;;;15.90;3.17;;;;;;;;;;5051343;28;20041;-65
2022/10/01 14:31:12;;;;;;;15.18;2.38;;;;;;;;;;5033433;28;20095;-65
2022/10/01 14:33:44;;;;;;;12.43;2.70;;;;;;;;;;5050669;28;20075;-65
2022/10/01 14:36:19;;;;;;;12.27;2.65;;;;;;;;;;5032862;28;20086;-65
2022/10/01 14:38:45;;;;;;;10.85;2.30;;;;;;;;;;5051092;28;20039;-65
2022/10/01 14:41:18;;;;;;;9.68;2.15;;;;;;;;;;5016194;28;20380;-66
2022/10/01 14:43:45;;;;;;;12.52;2.13;;;;;;;;;;5032789;28;20045;-65
2022/10/01 14:46:15;;;;;;;17.13;2.80;;;;;;;;;;5032955;28;20037;-65
2022/10/01 14:48:42;;;;;;;12.25;2.60;;;;;;;;;;5032502;28;20073;-65
2022/10/01 14:51:28;;;;;;;14.55;2.50;;;;;;;;;;5033028;28;20044;-65
2022/10/01 14:53:56;;;;;;;14.82;3.00;;;;;;;;;;5050121;28;20044;-65
2022/10/01 14:56:23;;;;;;;18.25;3.00;;;;;;;;;;5032659;28;20037;-65
2022/10/01 14:59:00;;;;;;;15.60;3.22;;;;;;;;;;5032801;28;20053;-65
2022/10/01 15:01:26;;;;;;;10.88;2.30;;;;;;;;;;5032116;28;20066;-65